Crooked Lake, Michigan
Current Conditions -  °F | °C
As of 7:15 PM on Thursday 27 Nov 2014 (Local Time) from KOZW Reporting Station
Overcast Overcast  
Wind Chill: 20°   Ceiling: 5000
Heat Index: 26°   Visibility: 10mi
Dew Point: 17°   Wind: 6mph
Humidity: 69%   Direction: 330°NNW
Pressure: 30.25"   Gusts: NA
Location:  42.5333°N, 83.7735°W
Report Text: KOZW 280015Z AUTO 33005KT 10SM SCT026 SCT039 OVC050 M03/M08 A3025 RMK AO2 T10311081
Loading
Personal Weather Stations






























Interactive Weather Map New forecast layout! Learn more

10-Day Weather Forecast

Advertisements
Track Severe Weather on mobile